createdAt,value
2017-09-02T00:01:57.925Z,66.04
2017-09-02T00:04:25.415Z,66.13
2017-09-02T00:06:52.899Z,66.36
2017-09-02T00:09:20.403Z,66.69
2017-09-02T00:11:47.865Z,66.56
2017-09-02T00:14:15.362Z,66.95
2017-09-02T00:16:42.818Z,66.50
2017-09-02T00:19:10.432Z,66.88
2017-09-02T00:21:37.889Z,66.99
2017-09-02T00:24:05.397Z,67.27
2017-09-02T00:26:32.882Z,67.43
2017-09-02T00:29:01.136Z,67.35
2017-09-02T00:31:28.635Z,67.33
2017-09-02T00:33:56.116Z,67.30
2017-09-02T00:36:23.589Z,67.52
2017-09-02T00:38:51.083Z,67.30
2017-09-02T00:41:18.551Z,67.25
2017-09-02T00:43:46.022Z,66.82
2017-09-02T00:46:13.703Z,66.30
2017-09-02T00:48:41.173Z,66.28
2017-09-02T00:51:09.567Z,66.47
2017-09-02T00:53:37.075Z,66.58
2017-09-02T00:56:06.090Z,66.40
2017-09-02T00:58:33.587Z,66.31
2017-09-02T01:01:01.037Z,66.45
2017-09-02T01:03:28.513Z,66.79
2017-09-02T01:05:55.976Z,67.15
2017-09-02T01:08:23.519Z,67.13
2017-09-02T01:10:50.987Z,67.16
2017-09-02T01:13:18.475Z,67.18
2017-09-02T01:15:45.949Z,67.66
2017-09-02T01:18:13.440Z,67.60
2017-09-02T01:20:40.914Z,67.52
2017-09-02T01:23:08.384Z,67.85
2017-09-02T01:25:35.857Z,68.08
2017-09-02T01:28:03.367Z,67.68
2017-09-02T01:30:38.846Z,67.89
2017-09-02T01:33:06.320Z,67.62
2017-09-02T01:35:33.801Z,67.78
2017-09-02T01:38:01.262Z,68.02
2017-09-02T01:40:28.745Z,68.04
2017-09-02T01:42:56.222Z,68.05
2017-09-02T01:45:23.707Z,68.16
2017-09-02T01:47:51.193Z,68.40
2017-09-02T01:50:18.677Z,68.75
2017-09-02T01:52:46.205Z,68.72
2017-09-02T01:55:13.690Z,68.87
2017-09-02T01:57:41.199Z,68.98
2017-09-02T02:00:08.702Z,68.73
2017-09-02T02:02:36.211Z,68.81
2017-09-02T02:05:03.753Z,68.71
2017-09-02T02:07:31.222Z,69.27
2017-09-02T02:09:58.737Z,69.28
2017-09-02T02:12:26.196Z,69.58
2017-09-02T02:14:53.694Z,69.68
2017-09-02T02:17:21.186Z,69.56
2017-09-02T02:19:48.688Z,69.26
2017-09-02T02:22:16.195Z,69.48
2017-09-02T02:24:43.658Z,69.51
2017-09-02T02:27:11.132Z,69.38
2017-09-02T02:29:38.608Z,69.58
2017-09-02T02:32:06.372Z,69.61
2017-09-02T02:34:33.831Z,69.43
2017-09-02T02:37:01.345Z,69.26
2017-09-02T02:39:35.323Z,69.24
2017-09-02T02:42:02.821Z,69.20
2017-09-02T02:44:30.317Z,68.81
2017-09-02T02:46:57.805Z,68.66
2017-09-02T02:49:25.287Z,68.98
2017-09-02T02:51:52.755Z,68.92
2017-09-02T02:54:20.238Z,69.00
2017-09-02T02:56:47.725Z,69.42
2017-09-02T02:59:16.030Z,70.02
2017-09-02T03:01:43.524Z,70.06
2017-09-02T03:04:10.988Z,70.11
2017-09-02T03:06:38.513Z,70.02
2017-09-02T03:09:05.977Z,69.92
2017-09-02T03:11:33.951Z,69.80
2017-09-02T03:14:01.442Z,69.85
2017-09-02T03:16:29.701Z,69.64
2017-09-02T03:18:57.188Z,69.55
2017-09-02T03:21:24.636Z,69.49
2017-09-02T03:23:52.143Z,69.46
2017-09-02T03:26:19.627Z,69.38
2017-09-02T03:28:47.107Z,69.53
2017-09-02T03:31:14.618Z,69.47
2017-09-02T03:33:42.084Z,69.24
2017-09-02T03:36:10.562Z,69.22
2017-09-02T03:38:38.030Z,69.24
2017-09-02T03:41:05.787Z,69.15
2017-09-02T03:43:33.256Z,69.40
2017-09-02T03:46:00.779Z,69.44
2017-09-02T03:48:28.262Z,69.33
2017-09-02T03:50:56.558Z,69.34
2017-09-02T03:53:24.025Z,69.09
2017-09-02T03:55:51.532Z,68.77
2017-09-02T03:58:19.114Z,69.26
2017-09-02T04:00:46.590Z,69.66
2017-09-02T04:03:14.077Z,69.72
2017-09-02T04:05:43.726Z,70.07
2017-09-02T04:08:12.417Z,70.21
2017-09-02T04:10:39.898Z,70.07
2017-09-02T04:13:07.369Z,69.88
2017-09-02T04:15:34.843Z,69.79
2017-09-02T04:18:04.842Z,70.09
2017-09-02T04:20:32.348Z,70.22
2017-09-02T04:23:02.650Z,70.10
2017-09-02T04:25:30.159Z,69.81
2017-09-02T04:27:57.829Z,70.05
2017-09-02T04:30:25.331Z,70.16
2017-09-02T04:32:52.846Z,70.22
2017-09-02T04:35:20.674Z,70.49
2017-09-02T04:37:48.139Z,70.37
2017-09-02T04:40:15.628Z,70.47
2017-09-02T04:42:43.114Z,70.60
2017-09-02T04:45:10.610Z,70.68
2017-09-02T04:47:38.098Z,71.56
2017-09-02T04:50:05.565Z,71.50
2017-09-02T04:52:33.074Z,71.10
2017-09-02T04:55:00.546Z,70.86
2017-09-02T04:57:28.286Z,70.89
2017-09-02T04:59:55.748Z,70.90
2017-09-02T05:02:23.363Z,71.06
2017-09-02T05:04:50.817Z,70.83
2017-09-02T05:07:18.304Z,70.88
2017-09-02T05:09:45.816Z,70.79
2017-09-02T05:12:13.277Z,70.61
2017-09-02T05:14:40.882Z,70.50
2017-09-02T05:17:08.352Z,70.51
2017-09-02T05:19:35.833Z,70.10
2017-09-02T05:22:03.330Z,70.01
2017-09-02T05:24:30.858Z,69.88
2017-09-02T05:26:58.417Z,70.38
2017-09-02T05:29:25.919Z,70.40
2017-09-02T05:31:53.422Z,70.37
2017-09-02T05:34:20.912Z,70.46
2017-09-02T05:36:48.439Z,70.17
2017-09-02T05:39:16.704Z,69.65
2017-09-02T05:41:44.206Z,69.82
2017-09-02T05:44:11.687Z,70.30
2017-09-02T05:46:39.197Z,70.11
2017-09-02T05:49:06.653Z,69.99
2017-09-02T05:51:34.143Z,69.61
2017-09-02T05:54:01.618Z,69.73
2017-09-02T05:56:29.100Z,69.68
2017-09-02T05:58:56.582Z,69.58
2017-09-02T06:01:24.822Z,69.68
2017-09-02T06:03:52.319Z,70.15
2017-09-02T06:06:19.787Z,70.06
2017-09-02T06:08:47.298Z,70.07
2017-09-02T06:11:14.772Z,70.37
2017-09-02T06:13:42.288Z,70.37
2017-09-02T06:16:09.771Z,70.30
2017-09-02T06:18:37.232Z,70.08
2017-09-02T06:21:04.771Z,69.76
2017-09-02T06:23:32.242Z,69.27
2017-09-02T06:25:59.709Z,69.60
2017-09-02T06:28:27.161Z,69.62
2017-09-02T06:30:55.123Z,69.62
2017-09-02T06:33:22.581Z,69.11
2017-09-02T06:35:50.070Z,68.68
2017-09-02T06:38:17.544Z,68.78
2017-09-02T06:40:45.052Z,68.75
2017-09-02T06:43:12.526Z,68.31
2017-09-02T06:45:39.974Z,68.15
2017-09-02T06:48:07.458Z,68.12
2017-09-02T06:50:34.928Z,67.84
2017-09-02T06:53:02.428Z,67.59
2017-09-02T06:55:29.879Z,67.70
2017-09-02T06:57:57.369Z,67.99
2017-09-02T07:00:24.839Z,67.63
2017-09-02T07:02:52.356Z,67.95
2017-09-02T07:05:19.838Z,67.96
2017-09-02T07:07:47.331Z,67.86
2017-09-02T07:10:14.842Z,67.76
2017-09-02T07:12:42.371Z,67.42
2017-09-02T07:15:09.867Z,67.63
2017-09-02T07:17:37.450Z,67.68
2017-09-02T07:20:05.840Z,67.57
2017-09-02T07:22:33.442Z,67.85
2017-09-02T07:25:00.912Z,67.82
2017-09-02T07:27:28.391Z,67.72
2017-09-02T07:29:55.897Z,67.38
2017-09-02T07:32:23.457Z,68.51
2017-09-02T07:34:50.968Z,68.46
2017-09-02T07:37:18.439Z,68.76
2017-09-02T07:39:45.940Z,68.89
2017-09-02T07:42:13.439Z,68.70
2017-09-02T07:44:40.928Z,67.98
2017-09-02T07:47:08.455Z,67.36
2017-09-02T07:49:35.911Z,67.01
2017-09-02T07:52:04.852Z,67.06
2017-09-02T07:54:32.346Z,67.33
2017-09-02T07:56:59.843Z,66.78
2017-09-02T07:59:28.107Z,65.92
2017-09-02T08:01:56.366Z,64.84
2017-09-02T08:04:23.858Z,64.44
2017-09-02T08:06:51.318Z,64.09
2017-09-02T08:09:18.809Z,64.21
2017-09-02T08:11:46.267Z,64.54
2017-09-02T08:14:13.754Z,65.27
2017-09-02T08:16:41.229Z,65.30
2017-09-02T08:19:08.713Z,65.01
2017-09-02T08:21:36.223Z,65.43
2017-09-02T08:24:03.710Z,65.41
2017-09-02T08:26:31.956Z,65.58
2017-09-02T08:29:00.650Z,65.15
2017-09-02T08:31:28.174Z,65.00
2017-09-02T08:33:55.683Z,65.09
2017-09-02T08:36:23.212Z,65.17
2017-09-02T08:38:50.711Z,65.03
2017-09-02T08:41:18.650Z,65.19
2017-09-02T08:43:46.106Z,65.28
2017-09-02T08:46:13.585Z,65.18
2017-09-02T08:48:41.092Z,64.95
2017-09-02T08:51:10.865Z,64.82
2017-09-02T08:53:38.430Z,65.04
2017-09-02T08:56:07.566Z,64.85
2017-09-02T08:58:35.076Z,62.25
2017-09-02T09:01:02.545Z,61.39
2017-09-02T09:03:30.890Z,60.86
2017-09-02T09:05:58.349Z,60.20
2017-09-02T09:08:25.854Z,60.05
2017-09-02T09:10:53.338Z,59.39
2017-09-02T09:19:06.010Z,58.43
2017-09-02T09:21:33.466Z,57.42
2017-09-02T09:24:00.939Z,56.66
2017-09-02T09:26:28.452Z,55.97
2017-09-02T09:28:56.473Z,55.71
2017-09-02T09:31:25.180Z,53.91
2017-09-02T09:33:53.464Z,54.59
2017-09-02T09:36:20.973Z,54.72
2017-09-02T09:38:48.433Z,55.70
2017-09-02T09:41:15.943Z,55.80
2017-09-02T09:43:43.437Z,55.69
2017-09-02T09:46:10.924Z,56.10
2017-09-02T09:48:38.469Z,56.90
2017-09-02T09:51:05.977Z,56.83
2017-09-02T09:53:33.595Z,56.17
2017-09-02T09:56:01.218Z,55.88
2017-09-02T09:58:28.815Z,55.64
2017-09-02T10:00:57.668Z,54.58
2017-09-02T10:03:25.215Z,54.46
2017-09-02T10:05:52.718Z,55.66
2017-09-02T10:08:20.235Z,55.42
2017-09-02T10:10:47.790Z,54.99
2017-09-02T10:13:15.315Z,54.68
2017-09-02T10:15:42.848Z,54.84
2017-09-02T10:18:11.208Z,54.69
2017-09-02T10:20:38.762Z,54.97
2017-09-02T10:23:06.227Z,54.39
2017-09-02T10:25:33.758Z,54.18
2017-09-02T10:28:01.212Z,53.75
2017-09-02T10:30:28.775Z,53.93
2017-09-02T10:32:58.032Z,53.83
2017-09-02T10:35:28.985Z,54.28
2017-09-02T10:37:56.641Z,55.19
2017-09-02T10:40:24.160Z,55.17
2017-09-02T10:42:51.699Z,53.40
2017-09-02T10:45:19.170Z,53.11
2017-09-02T10:47:46.716Z,51.77
2017-09-02T10:50:14.204Z,52.23
2017-09-02T10:52:42.631Z,52.01
2017-09-02T10:55:10.162Z,50.95
2017-09-02T10:57:37.689Z,51.50
2017-09-02T11:00:06.327Z,50.42
2017-09-02T11:02:33.847Z,50.05
2017-09-02T11:05:01.424Z,50.29
2017-09-02T11:07:28.914Z,49.66
2017-09-02T11:09:57.135Z,48.10
2017-09-02T11:12:25.231Z,46.91
2017-09-02T11:14:52.734Z,46.24
2017-09-02T11:17:20.796Z,44.90
2017-09-02T11:19:48.285Z,48.28
2017-09-02T11:22:15.750Z,48.39
2017-09-02T11:24:44.197Z,43.11
2017-09-02T11:27:11.702Z,49.16
2017-09-02T11:29:39.187Z,47.69
2017-09-02T11:32:06.769Z,42.53
2017-09-02T11:34:34.235Z,46.44
2017-09-02T11:37:01.770Z,43.88
2017-09-02T11:39:29.267Z,48.04
2017-09-02T11:41:56.731Z,48.51
2017-09-02T11:44:24.254Z,47.98
2017-09-02T11:46:51.752Z,46.96
2017-09-02T11:49:19.241Z,45.02
2017-09-02T11:51:46.739Z,45.79
2017-09-02T11:54:14.206Z,48.95
2017-09-02T11:56:41.692Z,47.85
2017-09-02T11:59:09.173Z,47.88
2017-09-02T12:01:36.655Z,48.07
2017-09-02T12:04:04.931Z,46.14
2017-09-02T12:06:32.404Z,43.48
2017-09-02T12:08:59.888Z,43.79
2017-09-02T12:11:27.357Z,44.08
2017-09-02T12:13:55.770Z,42.82
2017-09-02T12:16:23.246Z,42.17
2017-09-02T12:18:50.744Z,41.19
2017-09-02T12:21:18.212Z,41.30
2017-09-02T12:23:45.747Z,40.80
2017-09-02T12:26:13.204Z,43.19
2017-09-02T12:28:40.702Z,46.80
2017-09-02T12:31:08.361Z,48.46
2017-09-02T12:33:35.892Z,49.73
2017-09-02T12:36:04.412Z,50.51
2017-09-02T12:38:31.908Z,50.18
2017-09-02T12:40:59.407Z,49.76
2017-09-02T12:43:26.917Z,50.89
2017-09-02T12:45:54.452Z,51.39
2017-09-02T12:48:21.962Z,51.29
2017-09-02T12:50:50.156Z,50.06
2017-09-02T12:53:18.129Z,48.79
2017-09-02T12:55:45.604Z,47.85
2017-09-02T12:58:13.102Z,44.67
2017-09-02T13:00:40.618Z,42.22
2017-09-02T13:03:08.091Z,41.58
2017-09-02T13:05:35.582Z,41.41
2017-09-02T13:08:03.075Z,39.45
2017-09-02T13:10:30.716Z,41.30
2017-09-02T13:12:58.226Z,43.07
2017-09-02T13:15:25.695Z,43.50
2017-09-02T13:17:53.219Z,43.95
2017-09-02T13:20:20.712Z,45.76
2017-09-02T13:22:48.392Z,46.29
2017-09-02T13:25:15.853Z,46.72
2017-09-02T13:27:43.500Z,47.36
2017-09-02T13:30:11.063Z,48.08
2017-09-02T13:32:38.540Z,50.93
2017-09-02T13:35:06.040Z,52.66
2017-09-02T13:37:33.519Z,52.22
2017-09-02T13:40:00.998Z,53.11
2017-09-02T13:42:29.330Z,55.52
2017-09-02T13:44:57.304Z,55.93
2017-09-02T13:47:24.797Z,57.31
2017-09-02T13:49:52.290Z,59.95
2017-09-02T13:52:19.766Z,57.38
2017-09-02T13:54:47.250Z,56.43
2017-09-02T13:57:14.726Z,57.47
2017-09-02T13:59:42.337Z,58.34
2017-09-02T14:02:09.838Z,59.06
2017-09-02T14:04:37.339Z,57.61
2017-09-02T14:07:05.823Z,56.17
2017-09-02T14:09:33.581Z,55.59
2017-09-02T14:12:01.103Z,55.82
2017-09-02T14:14:28.584Z,56.17
2017-09-02T14:16:56.079Z,54.32
2017-09-02T14:19:23.549Z,52.21
2017-09-02T14:21:51.046Z,50.95
2017-09-02T14:24:18.544Z,49.45
2017-09-02T14:26:46.075Z,49.85
2017-09-02T14:29:13.559Z,50.71
2017-09-02T14:31:41.219Z,50.05
2017-09-02T14:34:08.696Z,51.05
2017-09-02T14:36:36.158Z,51.69
2017-09-02T14:39:03.665Z,51.33
2017-09-02T14:41:31.134Z,50.28
2017-09-02T14:43:58.629Z,51.59
2017-09-02T14:46:26.098Z,50.14
2017-09-02T14:48:53.582Z,51.13
2017-09-02T14:51:21.071Z,50.85
2017-09-02T14:53:48.589Z,51.75
2017-09-02T14:56:16.085Z,52.93
2017-09-02T14:58:43.585Z,52.71
2017-09-02T15:01:11.064Z,53.07
2017-09-02T15:03:38.525Z,52.66
2017-09-02T15:06:06.027Z,51.75
2017-09-02T15:08:33.485Z,49.98
2017-09-02T15:11:01.010Z,48.46
2017-09-02T15:13:28.473Z,48.58
2017-09-02T15:15:55.986Z,47.57
2017-09-02T15:18:23.577Z,47.83
2017-09-02T15:20:51.079Z,48.65
2017-09-02T15:23:18.557Z,48.67
2017-09-02T15:25:46.079Z,49.24
2017-09-02T15:28:13.567Z,49.59
2017-09-02T15:30:41.029Z,49.67
2017-09-02T15:33:08.524Z,49.93
2017-09-02T15:35:35.994Z,50.88
2017-09-02T15:38:03.512Z,50.89
2017-09-02T15:40:31.021Z,48.76
2017-09-02T15:42:58.559Z,47.92
2017-09-02T15:45:26.037Z,47.68
2017-09-02T15:47:53.548Z,47.37
2017-09-02T15:50:21.031Z,49.78
2017-09-02T15:52:48.561Z,48.98
2017-09-02T15:55:16.032Z,47.93
2017-09-02T15:57:43.529Z,45.26
2017-09-02T16:00:11.954Z,44.46
2017-09-02T16:02:39.415Z,44.62
2017-09-02T16:05:06.915Z,43.89
2017-09-02T16:07:34.394Z,43.78
2017-09-02T16:10:01.879Z,42.80
2017-09-02T16:12:30.083Z,43.78
2017-09-02T16:14:57.575Z,43.46
2017-09-02T16:17:25.081Z,45.12
2017-09-02T16:19:52.636Z,47.44
2017-09-02T16:22:20.125Z,45.95
2017-09-02T16:24:47.620Z,46.61
2017-09-02T16:27:15.121Z,46.73
2017-09-02T16:29:43.300Z,45.54
2017-09-02T16:32:10.790Z,46.29
2017-09-02T16:34:38.435Z,46.76
2017-09-02T16:37:05.969Z,46.93
2017-09-02T16:39:33.484Z,45.25
2017-09-02T16:42:01.010Z,44.30
2017-09-02T16:44:28.478Z,44.17
2017-09-02T16:46:56.021Z,44.33
2017-09-02T16:49:23.559Z,44.29
2017-09-02T16:51:51.040Z,44.17
2017-09-02T16:54:18.504Z,45.76
2017-09-02T16:56:46.030Z,46.66
2017-09-02T16:59:13.599Z,46.33
2017-09-02T17:01:41.176Z,47.16
2017-09-02T17:04:08.711Z,47.55
2017-09-02T17:06:36.244Z,48.11
2017-09-02T17:09:03.770Z,48.85
2017-09-02T17:11:31.294Z,48.33
2017-09-02T17:13:58.814Z,48.05
2017-09-02T17:16:26.331Z,49.97
2017-09-02T17:18:53.840Z,51.21
2017-09-02T17:21:21.308Z,51.45
2017-09-02T17:23:48.805Z,51.17
2017-09-02T17:26:16.307Z,50.79
2017-09-02T17:28:43.790Z,53.08
2017-09-02T17:31:11.333Z,53.86
2017-09-02T17:33:38.813Z,54.40
2017-09-02T17:36:06.344Z,54.32
2017-09-02T17:38:33.838Z,54.38
2017-09-02T17:41:01.305Z,51.07
2017-09-02T17:43:28.821Z,49.82
2017-09-02T17:45:56.636Z,48.71
2017-09-02T17:48:24.177Z,49.51
2017-09-02T17:50:51.705Z,49.46
2017-09-02T17:53:19.462Z,49.30
2017-09-02T17:55:46.951Z,49.17
2017-09-02T17:58:14.475Z,49.62
2017-09-02T18:00:41.946Z,50.87
2017-09-02T18:03:09.428Z,51.35
2017-09-02T18:05:36.933Z,51.25
2017-09-02T18:08:04.410Z,51.65
2017-09-02T18:10:31.929Z,51.93
2017-09-02T18:12:59.417Z,52.34
2017-09-02T18:15:26.928Z,52.97
2017-09-02T18:17:55.927Z,53.41
2017-09-02T18:20:23.449Z,54.27
2017-09-02T18:22:50.953Z,55.20
2017-09-02T18:25:18.473Z,55.24
2017-09-02T18:27:46.006Z,54.96
2017-09-02T18:30:13.490Z,55.03
2017-09-02T18:32:41.026Z,55.16
2017-09-02T18:35:08.780Z,55.30
2017-09-02T18:37:36.634Z,54.81
2017-09-02T18:40:04.129Z,54.81
2017-09-02T18:42:33.115Z,55.01
2017-09-02T18:45:00.614Z,54.98
2017-09-02T18:47:28.134Z,55.02
2017-09-02T18:49:55.912Z,55.20
2017-09-02T18:52:23.424Z,55.85
2017-09-02T18:54:50.977Z,55.91
2017-09-02T18:57:18.452Z,55.73
2017-09-02T18:59:46.607Z,55.54
2017-09-02T19:02:14.145Z,55.65
2017-09-02T19:04:41.710Z,55.63
2017-09-02T19:07:09.678Z,55.84
2017-09-02T19:09:37.230Z,55.81
2017-09-02T19:12:05.455Z,56.47
2017-09-02T19:14:32.974Z,56.94
2017-09-02T19:17:01.057Z,58.00
2017-09-02T19:19:28.578Z,58.54
2017-09-02T19:21:56.119Z,59.40
2017-09-02T19:24:24.577Z,59.46
2017-09-02T19:26:52.136Z,60.17
2017-09-02T19:29:20.882Z,60.93
2017-09-02T19:31:51.419Z,61.50
2017-09-02T19:34:20.819Z,61.80
2017-09-02T19:36:48.351Z,61.80
2017-09-02T19:39:15.822Z,61.84
2017-09-02T19:41:43.315Z,62.50
2017-09-02T19:44:10.775Z,62.54
2017-09-02T19:46:38.266Z,63.15
2017-09-02T19:49:05.982Z,63.57
2017-09-02T19:51:33.579Z,63.77
2017-09-02T19:54:01.058Z,64.00
2017-09-02T19:56:28.513Z,64.33
2017-09-02T19:58:56.005Z,64.74
2017-09-02T20:01:23.483Z,64.81
2017-09-02T20:03:55.927Z,64.82
2017-09-02T20:06:23.406Z,64.94
2017-09-02T20:08:50.909Z,65.97
2017-09-02T20:11:18.387Z,66.72
2017-09-02T20:13:45.891Z,67.00
2017-09-02T20:16:13.364Z,67.23
2017-09-02T20:18:40.858Z,67.65
2017-09-02T20:21:08.322Z,67.10
2017-09-02T20:23:37.464Z,67.52
2017-09-02T20:26:05.836Z,67.15
2017-09-02T20:28:33.285Z,67.28
2017-09-02T20:31:00.809Z,67.20
2017-09-02T20:33:28.351Z,67.32
2017-09-02T20:35:55.846Z,67.23
2017-09-02T20:38:23.323Z,67.21
2017-09-02T20:40:50.809Z,67.27
2017-09-02T20:43:18.286Z,67.58
2017-09-02T20:45:45.783Z,67.23
2017-09-02T20:48:13.263Z,67.35
2017-09-02T20:50:40.720Z,67.28
2017-09-02T20:53:08.254Z,66.85
2017-09-02T20:55:35.726Z,66.94
2017-09-02T20:58:03.239Z,67.46
2017-09-02T21:00:31.120Z,67.61
2017-09-02T21:03:02.295Z,67.55
2017-09-02T21:05:29.799Z,67.30
2017-09-02T21:07:59.537Z,68.04
2017-09-02T21:10:28.055Z,68.13
2017-09-02T21:12:56.797Z,68.72
2017-09-02T21:15:25.766Z,68.99
2017-09-02T21:17:53.618Z,68.98
2017-09-02T21:20:22.564Z,69.14
2017-09-02T21:22:50.070Z,69.54
2017-09-02T21:25:17.541Z,69.53
2017-09-02T21:30:51.294Z,69.45
2017-09-02T21:33:18.803Z,69.71
2017-09-02T21:35:47.162Z,69.59
2017-09-02T21:38:16.706Z,69.53
2017-09-02T21:40:47.737Z,69.21
2017-09-02T21:43:15.259Z,68.91
2017-09-02T21:45:42.717Z,69.42
2017-09-02T21:48:10.215Z,70.06
2017-09-02T21:50:37.689Z,70.38
2017-09-02T21:53:05.372Z,70.33
2017-09-02T21:55:32.854Z,69.81
2017-09-02T22:01:02.360Z,69.77
2017-09-02T22:03:29.987Z,70.25
2017-09-02T22:05:57.464Z,70.38
2017-09-02T22:08:24.967Z,70.13
2017-09-02T22:10:52.456Z,69.28
2017-09-02T22:13:19.927Z,69.21
2017-09-02T22:15:47.414Z,68.96
2017-09-02T22:18:14.889Z,69.10
2017-09-02T22:20:42.406Z,69.17
2017-09-02T22:23:09.875Z,69.46
2017-09-02T22:25:37.370Z,69.84
2017-09-02T22:28:05.020Z,70.08
2017-09-02T22:30:32.513Z,69.75
2017-09-02T22:33:00.770Z,69.53
2017-09-02T22:35:28.258Z,70.05
2017-09-02T22:37:55.752Z,70.82
2017-09-02T22:40:23.229Z,71.17
2017-09-02T22:42:50.722Z,70.92
2017-09-02T22:45:18.237Z,70.64
2017-09-02T22:47:45.705Z,70.58
2017-09-02T22:50:13.234Z,70.26
2017-09-02T22:52:40.723Z,70.68
2017-09-02T22:55:08.843Z,70.93
2017-09-02T22:57:36.318Z,70.88
2017-09-02T23:00:04.783Z,70.59
2017-09-02T23:02:32.259Z,69.89
2017-09-02T23:04:59.758Z,69.26
2017-09-02T23:07:27.256Z,69.83
2017-09-02T23:09:55.073Z,70.16
2017-09-02T23:12:22.568Z,70.67
2017-09-02T23:14:50.054Z,71.06
2017-09-02T23:17:17.810Z,71.17
2017-09-02T23:19:45.288Z,71.16
2017-09-02T23:22:12.759Z,70.59
2017-09-02T23:24:40.953Z,69.74
2017-09-02T23:27:08.551Z,69.69
2017-09-02T23:29:36.023Z,70.04
2017-09-02T23:32:03.532Z,69.60
2017-09-02T23:34:30.996Z,69.63
2017-09-02T23:36:58.482Z,69.91
2017-09-02T23:39:25.945Z,69.81
2017-09-02T23:41:53.433Z,70.14
2017-09-02T23:44:20.924Z,70.18
2017-09-02T23:46:48.423Z,70.39
2017-09-02T23:49:15.879Z,70.34
2017-09-02T23:51:43.373Z,70.17
2017-09-02T23:54:10.909Z,70.18
2017-09-02T23:56:38.403Z,70.05
2017-09-02T23:59:05.898Z,69.78
